Time;durP1;ratioP1;P1;durP2;ratioP2;P2;SDS_P1;SDS_P2;PMS_P1;PMS_P2;Temp;Humidity;BMP_temperature;BMP_pressure;BME280_temperature;BME280_humidity;BME280_pressure;Samples;Min_cycle;Max_cycle;Signal;HPM_P1;HPM_P2
2021/12/22 00:02:31;;;;;;;7.97;6.00;;;;;;;0.07;57.78;100025.84;5087757;28;20041;-66
2021/12/22 00:05:03;;;;;;;7.80;6.43;;;;;;;-0.61;58.12;99904.41;5088812;28;20044;-65
2021/12/22 00:07:36;;;;;;;11.40;6.97;;;;;;;0.03;58.68;100018.03;5089006;28;20182;-66
2021/12/22 00:10:10;;;;;;;11.32;6.40;;;;;;;0.03;58.21;100018.91;5088681;28;20113;-66
2021/12/22 00:12:42;;;;;;;12.07;6.77;;;;;;;-0.07;58.93;100020.66;5088681;28;20090;-67
2021/12/22 00:15:14;;;;;;;10.45;6.78;;;;;;;-0.91;58.51;99907.91;5088917;28;20224;-66
2021/12/22 00:17:47;;;;;;;10.55;7.10;;;;;;;-0.10;58.50;100025.88;5088776;28;20048;-66
2021/12/22 00:20:19;;;;;;;9.52;6.05;;;;;;;-0.10;58.65;100035.44;5088312;28;20098;-66
2021/12/22 00:22:51;;;;;;;11.02;7.50;;;;;;;-0.13;58.92;100027.63;5088462;28;20094;-67
2021/12/22 00:25:26;;;;;;;8.98;6.07;;;;;;;-0.18;59.40;100032.84;5088392;28;20342;-66
2021/12/22 00:27:59;;;;;;;7.35;6.25;;;;;;;-0.19;59.03;100031.09;5088568;28;20041;-67
2021/12/22 00:30:31;;;;;;;7.03;5.55;;;;;;;-0.21;59.23;100043.25;5088618;28;20048;-65
2021/12/22 00:33:04;;;;;;;7.18;5.10;;;;;;;-0.25;58.67;100036.31;5088327;28;20040;-67
2021/12/22 00:35:41;;;;;;;7.72;5.47;;;;;;;-0.22;58.87;100041.53;5088244;28;20045;-66
2021/12/22 00:38:15;;;;;;;8.07;4.43;;;;;;;-0.29;58.68;100045.00;5088248;28;20055;-66
2021/12/22 00:40:50;;;;;;;6.20;4.57;;;;;;;-0.33;59.00;100040.66;5088391;28;20048;-66
2021/12/22 00:43:22;;;;;;;5.45;4.65;;;;;;;-0.37;59.04;100049.34;5088084;28;20040;-66
2021/12/22 00:45:56;;;;;;;5.57;4.38;;;;;;;-0.35;58.77;100055.44;5088310;28;20036;-66
2021/12/22 00:48:28;;;;;;;7.05;4.72;;;;;;;-0.33;58.64;100043.28;5087904;28;20090;-66
2021/12/22 00:51:01;;;;;;;6.45;4.10;;;;;;;-0.38;58.74;100068.44;5087941;28;20048;-66
2021/12/22 00:53:33;;;;;;;5.47;4.30;;;;;;;-0.41;58.62;100058.91;5088127;28;20094;-65
2021/12/22 00:56:08;;;;;;;7.00;4.47;;;;;;;-0.49;58.89;100062.38;5088059;28;20049;-66
2021/12/22 00:58:40;;;;;;;4.90;3.58;;;;;;;-0.53;58.89;100063.22;5087810;28;20044;-66
2021/12/22 01:01:12;;;;;;;5.32;3.53;;;;;;;-0.56;58.76;100060.63;5087750;28;20041;-67
2021/12/22 01:03:44;;;;;;;5.20;3.25;;;;;;;-3.48;58.61;99551.59;5087718;28;20253;-67
2021/12/22 01:06:16;;;;;;;5.97;4.03;;;;;;;-0.55;58.45;100068.44;5087683;28;20082;-66
2021/12/22 01:08:48;;;;;;;5.50;3.72;;;;;;;-0.58;58.65;100076.25;5087571;28;20090;-65
2021/12/22 01:11:22;;;;;;;5.55;4.10;;;;;;;-0.63;58.98;100072.78;5088612;28;20090;-66
2021/12/22 01:13:54;;;;;;;5.28;3.40;;;;;;;-0.65;58.63;100077.09;5087182;28;20319;-68
2021/12/22 01:16:26;;;;;;;5.82;3.47;;;;;;;-2.24;58.39;99799.34;5087491;28;20098;-66
2021/12/22 01:19:03;;;;;;;4.43;3.20;;;;;;;-0.63;58.72;100069.28;5087435;28;20052;-66
2021/12/22 01:21:41;;;;;;;6.25;3.90;;;;;;;-0.65;58.66;100073.63;5087379;28;20048;-67
2021/12/22 01:24:22;;;;;;;6.15;4.22;;;;;;;-0.68;58.45;100072.75;5087329;28;20052;-66
2021/12/22 01:27:03;;;;;;;4.80;3.10;;;;;;;-0.70;58.99;100079.69;5087440;28;20051;-66
2021/12/22 01:29:38;;;;;;;4.90;3.38;;;;;;;-0.71;58.83;100072.75;5087248;28;20089;-66
2021/12/22 01:32:12;;;;;;;5.93;3.78;;;;;;;-0.70;58.98;100084.03;5087469;28;20040;-66
2021/12/22 01:34:44;;;;;;;6.18;3.67;;;;;;;-0.71;58.62;100087.50;5087470;28;20040;-67
2021/12/22 01:37:16;;;;;;;5.03;3.50;;;;;;;-0.69;58.67;100080.56;5087085;28;20048;-65
2021/12/22 01:39:49;;;;;;;4.72;3.15;;;;;;;-0.70;58.59;100078.84;5086997;28;20041;-66
2021/12/22 01:42:22;;;;;;;5.20;3.13;;;;;;;-0.78;58.76;100091.84;5087247;28;20300;-65
2021/12/22 01:45:14;;;;;;;3.92;3.15;;;;;;;-0.85;59.10;100084.00;5087232;28;20040;-65
2021/12/22 01:50:40;;;;;;;5.13;3.75;;;;;;;-0.91;59.09;100084.00;5086814;28;20285;-66
2021/12/22 01:53:32;;;;;;;6.45;3.53;;;;;;;-0.90;59.51;100094.41;5086746;28;20044;-66
2021/12/22 01:56:15;;;;;;;6.68;3.90;;;;;;;-0.89;58.90;100092.66;5086686;28;20138;-65
2021/12/22 01:58:51;;;;;;;5.43;3.92;;;;;;;-0.85;58.98;100087.47;5086583;28;20085;-66
2021/12/22 02:01:24;;;;;;;8.95;4.15;;;;;;;-0.83;58.87;100077.94;5086876;28;20048;-66
2021/12/22 02:03:56;;;;;;;5.53;4.00;;;;;;;-0.83;58.75;100084.88;5086822;28;20040;-66
2021/12/22 02:06:28;;;;;;;5.05;3.72;;;;;;;-0.87;58.84;100081.41;5086480;28;20040;-66
2021/12/22 02:09:00;;;;;;;8.57;4.05;;;;;;;-0.91;58.81;100087.47;5086278;28;20044;-66
2021/12/22 02:11:33;;;;;;;6.93;4.38;;;;;;;-0.91;58.75;100089.19;5086371;28;20063;-66
2021/12/22 02:14:07;;;;;;;6.65;4.75;;;;;;;-1.23;59.65;100048.31;5086634;28;20062;-65
2021/12/22 02:16:40;;;;;;;6.72;5.05;;;;;;;-1.05;59.62;100086.50;5086291;28;20048;-65
2021/12/22 02:19:14;;;;;;;6.22;4.50;;;;;;;-1.04;59.39;100089.13;5086115;28;20113;-65
2021/12/22 02:21:52;;;;;;;7.25;4.35;;;;;;;-1.06;59.60;100077.84;5086429;28;20044;-65
2021/12/22 02:24:21;;;;;;;7.63;5.03;;;;;;;-1.34;59.23;100035.25;5085411;28;20060;-65
2021/12/22 02:26:58;;;;;;;8.60;5.47;;;;;;;-1.12;59.82;100098.63;5085528;28;20040;-65
2021/12/22 02:29:35;;;;;;;6.70;4.25;;;;;;;-1.11;59.56;100094.31;5086150;28;20051;-65
2021/12/22 02:32:14;;;;;;;5.72;4.25;;;;;;;-1.08;59.21;100100.38;5085990;28;20063;-65
2021/12/22 02:34:48;;;;;;;8.05;4.78;;;;;;;-0.99;58.98;100101.31;5086185;28;20090;-65
2021/12/22 02:37:25;;;;;;;8.93;5.95;;;;;;;-0.97;59.25;100099.59;5086143;28;20243;-65
2021/12/22 02:40:00;;;;;;;6.60;4.97;;;;;;;-1.53;59.12;100023.06;5085825;28;20094;-65
2021/12/22 02:42:34;;;;;;;6.35;4.45;;;;;;;-0.99;58.99;100103.91;5086063;28;20044;-65
2021/12/22 02:45:07;;;;;;;7.95;4.60;;;;;;;-1.04;59.28;100106.47;5085772;28;20121;-65
2021/12/22 02:47:40;;;;;;;6.97;4.70;;;;;;;-2.21;59.75;99924.00;5085614;28;20044;-66
2021/12/22 02:50:14;;;;;;;6.18;4.50;;;;;;;-1.11;59.48;100096.91;5085966;28;20098;-65
2021/12/22 02:52:57;;;;;;;6.43;4.77;;;;;;;-1.12;59.79;100110.78;5085993;28;20048;-65
2021/12/22 02:55:41;;;;;;;5.70;4.35;;;;;;;-1.14;59.77;100105.56;5085647;28;20044;-65
2021/12/22 02:58:22;;;;;;;7.60;5.50;;;;;;;-1.19;60.04;100103.81;5085533;28;20044;-65
2021/12/22 03:01:08;;;;;;;6.00;4.03;;;;;;;-1.98;59.37;99987.31;5085612;28;20048;-65
2021/12/22 03:03:54;;;;;;;6.07;5.03;;;;;;;-1.18;59.76;100097.75;5085743;28;20086;-65
2021/12/22 03:06:33;;;;;;;7.10;5.10;;;;;;;-1.21;60.33;100105.53;5085751;28;20048;-65
2021/12/22 03:09:17;;;;;;;5.97;4.50;;;;;;;-1.19;60.70;100101.22;5084872;28;20045;-65
2021/12/22 03:11:50;;;;;;;6.93;4.53;;;;;;;-1.19;59.68;100094.28;5084647;28;20102;-65
2021/12/22 03:14:24;;;;;;;6.82;5.22;;;;;;;-1.15;59.72;100093.41;5085626;28;20289;-65
2021/12/22 03:16:54;;;;;;;5.53;4.68;;;;;;;-1.16;60.07;100099.47;5085665;28;20040;-65
2021/12/22 03:19:26;;;;;;;8.60;4.80;;;;;;;-1.15;59.99;100096.03;5085183;28;20137;-65
2021/12/22 03:21:59;;;;;;;6.63;4.30;;;;;;;-1.14;60.24;100100.34;5085339;28;20063;-65
2021/12/22 03:24:31;;;;;;;6.78;4.32;;;;;;;-1.17;60.45;100100.34;5085249;28;20050;-65
2021/12/22 03:27:02;;;;;;;7.50;4.82;;;;;;;-1.20;60.31;100100.34;5085385;28;20060;-65
2021/12/22 03:29:36;;;;;;;8.55;5.18;;;;;;;-1.24;60.81;100100.31;5085539;28;20346;-65
2021/12/22 03:32:09;;;;;;;7.68;5.47;;;;;;;-1.27;60.37;100106.38;5085254;28;20045;-65
2021/12/22 03:34:42;;;;;;;5.63;4.45;;;;;;;-1.40;60.71;100110.66;5085423;28;20086;-65
2021/12/22 03:37:14;;;;;;;7.40;4.82;;;;;;;-1.73;61.02;100063.69;5089409;28;20044;-65
2021/12/22 03:39:48;;;;;;;7.45;5.07;;;;;;;-1.37;60.50;100115.00;5089575;28;20044;-65
2021/12/22 03:42:20;;;;;;;11.52;6.72;;;;;;;-1.30;60.43;100108.97;5089539;28;20082;-65
2021/12/22 03:44:52;;;;;;;6.78;4.75;;;;;;;-2.96;60.40;99830.13;5089503;28;20044;-65
2021/12/22 03:47:26;;;;;;;9.52;6.13;;;;;;;-1.76;60.57;100051.53;5088371;28;20082;-66
2021/12/22 03:49:58;;;;;;;7.55;6.10;;;;;;;-1.36;60.82;100119.34;5088992;28;20083;-66
2021/12/22 03:52:30;;;;;;;9.35;5.47;;;;;;;-1.51;60.55;100095.84;5089103;28;20090;-65
2021/12/22 03:55:04;;;;;;;7.75;5.10;;;;;;;-2.92;60.68;99864.75;5089235;28;20335;-65
2021/12/22 03:57:36;;;;;;;9.00;6.17;;;;;;;-1.44;61.06;100123.63;5089210;28;20037;-65
2021/12/22 04:00:12;;;;;;;9.30;7.57;;;;;;;-1.43;60.91;100127.97;5088887;28;20362;-65
2021/12/22 04:02:44;;;;;;;8.35;6.20;;;;;;;-1.77;61.80;100087.91;5089133;28;20100;-65
2021/12/22 04:05:18;;;;;;;10.35;7.18;;;;;;;-1.86;61.10;100080.94;5088826;28;20044;-65
2021/12/22 04:07:50;;;;;;;8.93;5.97;;;;;;;-1.60;61.32;100127.88;5089011;28;20048;-65
2021/12/22 04:10:25;;;;;;;8.30;5.85;;;;;;;-1.67;62.12;100128.69;5088584;28;20190;-65
2021/12/22 04:12:57;;;;;;;8.18;5.88;;;;;;;-1.66;61.31;100131.31;5088120;28;20064;-65
2021/12/22 04:15:31;;;;;;;8.82;5.72;;;;;;;-1.62;61.62;100129.59;5088793;28;20111;-65
2021/12/22 04:18:03;;;;;;;10.65;6.07;;;;;;;-1.58;61.71;100128.75;5088824;28;20040;-66
2021/12/22 04:20:35;;;;;;;8.75;6.78;;;;;;;-1.56;61.41;100124.44;5088297;28;20056;-65
2021/12/22 04:23:08;;;;;;;12.13;5.57;;;;;;;-3.13;60.71;99850.75;5088449;28;20172;-65
2021/12/22 04:25:42;;;;;;;13.38;7.32;;;;;;;-1.52;60.75;100125.31;5088656;28;20040;-65
2021/12/22 04:28:15;;;;;;;9.80;6.80;;;;;;;-1.57;61.19;100133.09;5088333;28;20343;-65
2021/12/22 04:30:50;;;;;;;10.93;6.15;;;;;;;-1.58;61.64;100130.47;5088547;28;20067;-65
2021/12/22 04:33:23;;;;;;;9.75;6.95;;;;;;;-1.64;61.50;100131.31;5089071;28;20178;-65
2021/12/22 04:35:55;;;;;;;9.05;5.70;;;;;;;-1.67;62.16;100123.50;5088183;28;20102;-65
2021/12/22 04:38:27;;;;;;;8.25;6.18;;;;;;;-1.68;61.67;100127.81;5088126;28;20044;-65
2021/12/22 04:41:01;;;;;;;12.43;7.13;;;;;;;-1.72;62.04;100120.88;5088152;28;20090;-64
2021/12/22 04:43:33;;;;;;;10.75;8.18;;;;;;;-1.69;61.87;100127.81;5088048;28;20093;-66
2021/12/22 04:46:05;;;;;;;11.90;7.97;;;;;;;-1.69;61.62;100120.00;5088104;28;20040;-65
2021/12/22 04:48:38;;;;;;;12.88;7.30;;;;;;;-1.58;61.37;100122.69;5086970;28;20094;-65
2021/12/22 04:51:21;;;;;;;11.00;6.55;;;;;;;-1.58;61.38;100127.88;5088186;28;20101;-65
2021/12/22 04:54:04;;;;;;;11.63;6.53;;;;;;;-1.60;61.24;100130.47;5088131;28;20082;-65
2021/12/22 04:56:39;;;;;;;10.10;6.50;;;;;;;-1.60;61.19;100140.00;5087819;28;20089;-64
2021/12/22 04:59:11;;;;;;;11.18;6.28;;;;;;;-1.62;61.11;100144.31;5087845;28;20235;-65
2021/12/22 05:01:43;;;;;;;9.35;6.47;;;;;;;-1.89;61.09;100100.81;5087948;28;20041;-65
2021/12/22 05:04:16;;;;;;;10.57;7.28;;;;;;;-1.67;61.31;100142.56;5087641;28;20068;-65
2021/12/22 05:06:48;;;;;;;9.13;6.57;;;;;;;-1.67;61.32;100150.34;5087827;28;20083;-65
2021/12/22 05:09:21;;;;;;;11.25;6.63;;;;;;;-1.67;61.32;100145.16;5087478;28;20044;-64
2021/12/22 05:11:55;;;;;;;10.55;5.75;;;;;;;-1.70;61.51;100147.72;5087494;28;20082;-64
2021/12/22 05:14:27;;;;;;;9.45;6.63;;;;;;;-1.70;61.56;100146.88;5086722;28;20334;-64
2021/12/22 05:17:02;;;;;;;9.10;6.53;;;;;;;-1.73;61.64;100154.63;5087732;28;20044;-65
2021/12/22 05:19:30;;;;;;;9.43;6.55;;;;;;;-3.05;61.79;99921.69;5087201;28;20086;-65
2021/12/22 05:21:59;;;;;;;10.13;6.53;;;;;;;-1.75;61.66;100148.56;5087533;28;20103;-64
2021/12/22 05:24:30;;;;;;;8.73;6.15;;;;;;;-1.74;62.03;100150.31;5087513;28;20041;-65
2021/12/22 05:27:01;;;;;;;9.40;6.20;;;;;;;-1.77;62.02;100181.47;5087236;28;20046;-65
2021/12/22 05:29:30;;;;;;;11.35;5.85;;;;;;;-1.76;61.84;100152.88;5086981;28;20047;-65
2021/12/22 05:32:03;;;;;;;10.23;7.07;;;;;;;-1.76;61.66;100149.41;5087325;28;20086;-65
2021/12/22 05:34:31;;;;;;;10.13;6.28;;;;;;;-1.76;62.05;100152.88;5087222;28;20304;-65
2021/12/22 05:37:01;;;;;;;11.13;6.90;;;;;;;-1.76;61.99;100154.63;5087264;28;20040;-64
2021/12/22 05:39:31;;;;;;;9.57;6.68;;;;;;;-1.81;62.62;100158.91;5087185;28;20044;-65
2021/12/22 05:42:03;;;;;;;9.60;6.95;;;;;;;-2.09;62.20;100113.66;5086869;28;20063;-64
2021/12/22 05:44:32;;;;;;;9.95;7.68;;;;;;;-1.75;61.59;100166.75;5086777;28;20119;-65
2021/12/22 05:47:02;;;;;;;11.18;7.18;;;;;;;-1.75;62.17;100175.41;5087046;28;20082;-64
2021/12/22 05:49:32;;;;;;;10.95;7.57;;;;;;;-1.72;61.88;100174.56;5086920;28;20094;-65
2021/12/22 05:52:03;;;;;;;9.30;6.47;;;;;;;-1.74;61.84;100177.16;5086728;28;20315;-65
2021/12/22 05:54:33;;;;;;;10.80;8.30;;;;;;;-1.74;61.59;100182.34;5086813;28;20048;-64
2021/12/22 05:57:05;;;;;;;11.07;7.60;;;;;;;-1.76;62.47;100183.19;5086463;28;20040;-64
2021/12/22 05:59:33;;;;;;;9.43;6.93;;;;;;;-1.78;62.11;100188.38;5085708;28;20049;-66
2021/12/22 06:02:04;;;;;;;11.73;7.57;;;;;;;-1.79;62.59;100189.25;5086621;28;20040;-65
2021/12/22 06:04:33;;;;;;;10.93;6.80;;;;;;;-1.80;62.63;100191.84;5086381;28;20308;-65
2021/12/22 06:07:04;;;;;;;10.07;8.20;;;;;;;-1.86;63.09;100202.19;5086348;28;20120;-65
2021/12/22 06:09:34;;;;;;;10.38;6.75;;;;;;;-1.88;62.47;100204.75;5086236;28;20100;-65
2021/12/22 06:12:07;;;;;;;13.63;9.10;;;;;;;-1.90;62.50;100205.59;5086506;28;20127;-65
2021/12/22 06:14:35;;;;;;;11.90;7.68;;;;;;;-1.92;62.49;100204.72;5086395;28;20056;-65
2021/12/22 06:17:05;;;;;;;16.02;8.82;;;;;;;-1.97;62.98;100210.75;5086078;28;20241;-65
2021/12/22 06:19:35;;;;;;;13.45;8.35;;;;;;;-1.98;62.72;100216.81;5085198;28;20106;-65
2021/12/22 06:22:05;;;;;;;14.48;8.35;;;;;;;-1.93;62.55;100222.03;5086350;28;20078;-65
2021/12/22 06:24:35;;;;;;;13.90;8.02;;;;;;;-1.91;62.36;100225.53;5086005;28;20041;-65
2021/12/22 06:27:07;;;;;;;12.80;9.10;;;;;;;-1.91;62.57;100228.13;5086183;28;20115;-65
2021/12/22 06:29:36;;;;;;;11.10;8.05;;;;;;;-1.94;62.89;100225.50;5085746;28;20066;-65
2021/12/22 06:32:07;;;;;;;13.68;8.90;;;;;;;-1.91;62.47;100227.25;5085967;28;20067;-65
2021/12/22 06:34:37;;;;;;;14.85;9.68;;;;;;;-3.62;62.88;99953.94;5085738;28;20089;-65
2021/12/22 06:37:07;;;;;;;15.25;8.98;;;;;;;-1.91;62.46;100227.25;5085690;28;20049;-65
2021/12/22 06:39:37;;;;;;;13.48;9.00;;;;;;;-1.89;62.51;100229.00;5086004;28;20290;-65
2021/12/22 06:42:10;;;;;;;12.80;8.73;;;;;;;-2.44;62.45;100137.59;5085960;28;20188;-65
2021/12/22 06:44:37;;;;;;;15.45;9.45;;;;;;;-1.87;62.35;100236.81;5085792;28;20052;-65
2021/12/22 06:47:10;;;;;;;12.43;7.97;;;;;;;-1.92;62.63;100241.09;5085579;28;20040;-65
2021/12/22 06:49:38;;;;;;;11.75;8.35;;;;;;;-1.92;62.58;100247.16;5085509;28;20056;-66
2021/12/22 06:52:10;;;;;;;11.60;8.18;;;;;;;-1.93;63.26;100245.44;5085522;28;20047;-65
2021/12/22 06:54:38;;;;;;;12.85;8.30;;;;;;;-1.90;62.80;100244.59;5085412;28;20244;-65
2021/12/22 06:57:14;;;;;;;12.88;8.55;;;;;;;-2.17;62.92;100207.09;5085317;28;20067;-66
2021/12/22 06:59:45;;;;;;;11.20;7.88;;;;;;;-1.85;62.35;100259.34;5085652;28;20056;-65
2021/12/22 07:02:16;;;;;;;11.85;7.47;;;;;;;-1.83;62.13;100259.38;5085536;28;20153;-64
2021/12/22 07:04:46;;;;;;;12.63;8.35;;;;;;;-1.87;62.20;100263.66;5085215;28;20174;-63
2021/12/22 07:07:16;;;;;;;13.32;8.60;;;;;;;-1.87;62.78;100271.47;5085431;28;20086;-64
2021/12/22 07:09:46;;;;;;;12.88;8.32;;;;;;;-1.88;63.25;100269.72;5085294;28;20093;-64
2021/12/22 07:12:18;;;;;;;14.52;9.68;;;;;;;-1.85;62.84;100274.06;5085207;28;20040;-64
2021/12/22 07:14:47;;;;;;;12.52;9.50;;;;;;;-1.90;63.67;100275.75;5085486;28;20040;-64
2021/12/22 07:17:17;;;;;;;14.32;8.80;;;;;;;-1.82;62.39;100272.38;5085219;28;20340;-64
2021/12/22 07:19:50;;;;;;;13.25;9.85;;;;;;;-1.81;62.45;100266.31;5085088;28;20082;-64
2021/12/22 07:22:19;;;;;;;14.82;9.52;;;;;;;-1.77;62.54;100275.00;5085481;28;20048;-64
2021/12/22 07:24:48;;;;;;;11.48;8.13;;;;;;;-1.75;62.89;100281.97;5085141;28;20047;-64
2021/12/22 07:27:19;;;;;;;15.65;9.73;;;;;;;-2.08;62.71;100222.78;5085144;28;20046;-64
2021/12/22 07:29:48;;;;;;;16.13;9.43;;;;;;;-1.73;62.84;100281.97;5085308;28;20047;-64
2021/12/22 07:32:19;;;;;;;13.43;9.77;;;;;;;-1.99;62.48;100232.38;5085250;28;20350;-64
2021/12/22 07:34:57;;;;;;;11.93;8.88;;;;;;;-1.72;62.87;100283.72;5085087;28;20182;-64
2021/12/22 07:37:42;;;;;;;11.10;9.25;;;;;;;-6.93;62.64;99394.91;5085389;28;20086;-64
2021/12/22 07:40:16;;;;;;;16.27;10.20;;;;;;;-2.27;62.57;100186.22;5084154;28;20044;-64
2021/12/22 07:42:50;;;;;;;10.95;8.00;;;;;;;-1.68;62.61;100281.16;5084911;28;20299;-64
2021/12/22 07:45:23;;;;;;;14.30;10.27;;;;;;;-1.60;62.44;100283.84;5084893;28;20219;-64
2021/12/22 07:47:55;;;;;;;13.45;8.95;;;;;;;-1.55;62.42;100284.75;5084852;28;20086;-64
2021/12/22 07:50:27;;;;;;;15.23;9.88;;;;;;;-1.52;62.72;100292.56;5084736;28;20044;-64
2021/12/22 07:52:59;;;;;;;15.90;9.55;;;;;;;-1.44;62.24;100288.31;5085053;28;20048;-64
2021/12/22 07:55:31;;;;;;;15.52;9.90;;;;;;;-1.34;62.33;100289.25;5085105;28;20086;-64
2021/12/22 07:58:07;;;;;;;12.18;8.57;;;;;;;-1.32;62.72;100287.53;5084881;28;20041;-64
2021/12/22 08:00:39;;;;;;;14.02;9.45;;;;;;;-1.26;61.88;100279.78;5084970;28;20138;-65
2021/12/22 08:03:12;;;;;;;15.00;8.57;;;;;;;-1.18;62.05;100279.81;5085130;28;20049;-65
2021/12/22 08:05:44;;;;;;;11.48;9.35;;;;;;;-6.61;61.11;99336.91;5084569;28;20211;-65
2021/12/22 08:08:18;;;;;;;12.18;8.73;;;;;;;-0.78;61.34;100274.03;5084172;28;20093;-65
2021/12/22 08:10:51;;;;;;;15.05;9.20;;;;;;;-0.54;60.25;100275.88;5084661;28;20082;-65
2021/12/22 08:13:24;;;;;;;10.88;8.13;;;;;;;-0.36;60.10;100277.69;5084755;28;20296;-65
2021/12/22 08:15:56;;;;;;;14.38;9.75;;;;;;;-0.18;59.46;100289.91;5083948;28;20247;-64
2021/12/22 08:18:29;;;;;;;12.27;9.38;;;;;;;-0.02;59.68;100283.00;5084304;28;20041;-65
2021/12/22 08:21:01;;;;;;;13.13;9.15;;;;;;;0.07;59.59;100280.41;5084532;28;20086;-65
2021/12/22 08:23:33;;;;;;;15.90;10.32;;;;;;;0.21;58.96;100282.19;5087336;28;20044;-65
2021/12/22 08:26:05;;;;;;;14.55;9.57;;;;;;;0.38;58.73;100320.44;5088247;28;20102;-65
2021/12/22 08:28:39;;;;;;;12.82;8.65;;;;;;;0.45;58.51;100283.94;5088105;28;20146;-65
2021/12/22 08:31:11;;;;;;;15.48;9.85;;;;;;;0.46;58.44;100280.47;5088327;28;20040;-65
2021/12/22 08:33:46;;;;;;;13.73;9.57;;;;;;;-0.29;58.35;100200.44;5088301;28;20086;-65
2021/12/22 08:39:07;;;;;;;16.45;10.85;;;;;;;0.58;58.14;100290.88;5087914;28;20066;-66
2021/12/22 08:41:43;;;;;;;14.70;11.48;;;;;;;0.64;58.26;100296.97;5088294;28;20094;-66
2021/12/22 08:44:19;;;;;;;15.02;11.20;;;;;;;-1.44;58.21;99960.69;5087761;28;20352;-66
2021/12/22 08:46:52;;;;;;;16.98;10.77;;;;;;;0.83;57.94;100301.31;5088117;28;20261;-66
2021/12/22 08:49:24;;;;;;;14.40;9.60;;;;;;;0.93;57.72;100303.91;5088161;28;20102;-65
2021/12/22 08:51:57;;;;;;;17.20;10.48;;;;;;;-3.88;57.46;99467.66;5088063;28;20045;-66
2021/12/22 08:54:29;;;;;;;14.32;10.93;;;;;;;1.20;57.54;100308.22;5087599;28;20082;-65
2021/12/22 08:57:01;;;;;;;17.55;10.38;;;;;;;1.49;57.13;100302.06;5088015;28;20170;-65
2021/12/22 08:59:35;;;;;;;19.88;11.43;;;;;;;1.64;56.27;100301.16;5087706;28;20308;-65
2021/12/22 09:02:07;;;;;;;13.25;9.75;;;;;;;1.50;56.32;100286.38;5087641;28;20105;-65
2021/12/22 09:04:40;;;;;;;15.75;10.85;;;;;;;1.69;55.92;100308.09;5087802;28;20040;-65
2021/12/22 09:07:12;;;;;;;15.85;9.02;;;;;;;1.92;56.03;100326.31;5087549;28;20045;-64
2021/12/22 09:09:44;;;;;;;13.68;10.95;;;;;;;2.08;55.81;100321.88;5087783;28;20104;-64
2021/12/22 09:12:16;;;;;;;15.75;10.80;;;;;;;2.21;55.46;100316.56;5087165;28;20041;-64
2021/12/22 09:14:48;;;;;;;17.20;10.40;;;;;;;2.41;55.41;100312.94;5087243;28;20060;-65
2021/12/22 09:17:17;;;;;;;13.15;9.90;;;;;;;2.44;54.90;100319.03;5087287;28;20036;-64
2021/12/22 09:19:48;;;;;;;14.32;10.38;;;;;;;2.55;54.68;100321.56;5086943;28;20091;-65
2021/12/22 09:22:17;;;;;;;16.60;11.55;;;;;;;2.70;54.79;100313.59;5086946;28;20103;-64
2021/12/22 09:24:47;;;;;;;14.43;9.93;;;;;;;2.86;54.11;100320.44;5086847;28;20063;-65
2021/12/22 09:27:18;;;;;;;15.70;9.95;;;;;;;2.93;54.15;100320.38;5087070;28;20315;-65
2021/12/22 09:29:49;;;;;;;16.63;11.18;;;;;;;2.85;53.95;100318.69;5087010;28;20040;-65
2021/12/22 09:32:18;;;;;;;17.60;11.55;;;;;;;2.54;54.25;100276.22;5086641;28;20040;-65
2021/12/22 09:34:50;;;;;;;14.35;9.45;;;;;;;2.67;54.53;100318.84;5086879;28;20040;-65
2021/12/22 09:37:19;;;;;;;12.90;9.82;;;;;;;2.68;54.28;100367.69;5087235;28;20110;-65
2021/12/22 09:39:49;;;;;;;12.20;9.05;;;;;;;2.62;54.57;100325.88;5087011;28;20041;-65
2021/12/22 09:42:19;;;;;;;13.80;8.63;;;;;;;2.53;54.70;100320.72;5087118;28;20071;-66
2021/12/22 09:44:51;;;;;;;15.32;10.35;;;;;;;2.42;54.73;100320.78;5087108;28;20040;-66
2021/12/22 09:47:27;;;;;;;12.90;10.07;;;;;;;2.29;55.21;100328.72;5086897;28;20083;-65
2021/12/22 09:50:09;;;;;;;13.93;9.82;;;;;;;2.26;55.51;100337.44;5086696;28;20119;-67
2021/12/22 09:52:41;;;;;;;14.20;10.18;;;;;;;2.26;55.35;100313.03;5086886;28;20093;-65
2021/12/22 09:55:13;;;;;;;14.60;10.52;;;;;;;2.14;54.88;100314.84;5086670;28;20045;-67
2021/12/22 09:57:46;;;;;;;12.07;9.20;;;;;;;1.93;55.46;100274.88;5086862;28;20041;-65
2021/12/22 10:00:20;;;;;;;14.68;9.95;;;;;;;2.15;55.37;100313.09;5086530;28;20044;-67
2021/12/22 10:02:52;;;;;;;15.35;10.82;;;;;;;2.19;55.54;100310.47;5085652;28;20094;-65
2021/12/22 10:05:24;;;;;;;14.32;10.98;;;;;;;2.34;55.34;100306.00;5086799;28;20101;-65
2021/12/22 10:08:08;;;;;;;18.02;11.57;;;;;;;2.41;54.94;100305.97;5086695;28;20045;-65
2021/12/22 10:10:43;;;;;;;14.35;10.80;;;;;;;1.40;54.95;100150.59;5086569;28;20044;-67
2021/12/22 10:13:18;;;;;;;14.57;10.88;;;;;;;2.27;54.79;100297.34;5086493;28;20044;-65
2021/12/22 10:15:51;;;;;;;13.60;10.50;;;;;;;2.17;55.11;100296.53;5086381;28;20040;-67
2021/12/22 10:18:27;;;;;;;14.77;11.07;;;;;;;2.09;55.12;100287.84;5086129;28;20044;-65
2021/12/22 10:21:10;;;;;;;15.55;10.32;;;;;;;0.62;54.63;100028.28;5086454;28;20114;-66
2021/12/22 10:23:45;;;;;;;14.70;10.68;;;;;;;1.92;55.29;100291.44;5086175;28;20036;-64
2021/12/22 10:26:19;;;;;;;15.10;11.45;;;;;;;1.82;55.56;100280.16;5086268;28;20041;-64
2021/12/22 10:28:53;;;;;;;17.00;13.00;;;;;;;1.99;55.64;100280.06;5085955;28;20044;-65
2021/12/22 10:31:34;;;;;;;21.52;11.50;;;;;;;2.10;54.88;100236.44;5086094;28;20048;-65
2021/12/22 10:34:10;;;;;;;18.13;12.25;;;;;;;2.60;54.47;100277.03;5085851;28;20109;-65
2021/12/22 10:36:47;;;;;;;15.35;10.68;;;;;;;2.74;54.27;100270.81;5086137;28;20044;-65
2021/12/22 10:39:22;;;;;;;17.13;11.32;;;;;;;2.73;54.20;100287.38;5085661;28;20036;-65
2021/12/22 10:42:02;;;;;;;14.35;11.20;;;;;;;2.78;53.44;100264.66;5085909;28;20049;-65
2021/12/22 10:44:36;;;;;;;16.67;11.85;;;;;;;2.76;53.81;100263.81;5085525;28;20232;-65
2021/12/22 10:47:20;;;;;;;19.37;12.80;;;;;;;3.02;53.32;100262.69;5085777;28;20081;-65
2021/12/22 10:50:00;;;;;;;21.05;12.82;;;;;;;3.28;52.73;100252.78;5085983;28;20106;-65
2021/12/22 10:52:33;;;;;;;16.95;11.98;;;;;;;3.51;52.53;100252.53;5085561;28;20111;-65
2021/12/22 10:55:11;;;;;;;17.35;11.60;;;;;;;3.61;51.73;100248.03;5085824;28;20048;-65
2021/12/22 10:57:46;;;;;;;21.92;15.15;;;;;;;3.84;52.78;100246.84;5085367;28;20044;-65
2021/12/22 11:00:20;;;;;;;18.58;14.07;;;;;;;4.12;52.80;100247.31;5085490;28;20048;-65
2021/12/22 11:03:05;;;;;;;17.10;10.77;;;;;;;4.09;51.17;100201.91;5085561;28;20101;-65
2021/12/22 11:05:43;;;;;;;19.80;13.77;;;;;;;4.12;50.28;100181.72;5085760;28;20101;-66
2021/12/22 11:08:19;;;;;;;19.13;13.68;;;;;;;4.40;50.74;100228.56;5085574;28;20150;-65
2021/12/22 11:10:53;;;;;;;22.73;15.40;;;;;;;4.44;51.87;100235.50;5085310;28;20323;-65
2021/12/22 11:13:25;;;;;;;17.60;11.93;;;;;;;4.48;51.45;100226.66;5085004;28;20220;-67
2021/12/22 11:15:58;;;;;;;18.80;13.60;;;;;;;4.45;51.13;100227.59;5085285;28;20041;-66
2021/12/22 11:18:34;;;;;;;20.98;13.32;;;;;;;4.35;50.71;100235.63;5085358;28;20036;-67
2021/12/22 11:21:09;;;;;;;19.90;14.30;;;;;;;4.01;51.45;100238.75;5085300;28;20048;-66
2021/12/22 11:23:41;;;;;;;22.48;15.57;;;;;;;3.89;52.25;100243.28;5085120;28;20090;-66
2021/12/22 11:26:13;;;;;;;17.77;12.90;;;;;;;3.85;52.08;100245.97;5085080;28;20040;-66
2021/12/22 11:28:46;;;;;;;21.58;14.02;;;;;;;3.76;52.57;100246.09;5084852;28;20044;-67
2021/12/22 11:31:18;;;;;;;17.33;12.60;;;;;;;3.85;52.26;100243.34;5085067;28;20044;-66
2021/12/22 11:33:52;;;;;;;19.08;14.77;;;;;;;3.72;51.83;100244.38;5085276;28;20041;-67
2021/12/22 11:36:25;;;;;;;20.90;13.60;;;;;;;3.66;52.26;100240.97;5085437;28;20086;-66
2021/12/22 11:38:58;;;;;;;15.75;11.52;;;;;;;3.59;53.11;100234.09;5084848;28;20383;-65
2021/12/22 11:41:31;;;;;;;21.35;14.30;;;;;;;3.29;52.92;100228.34;5084954;28;20354;-65
2021/12/22 11:44:04;;;;;;;21.40;13.18;;;;;;;3.12;53.46;100228.53;5085169;28;20049;-66
2021/12/22 11:46:37;;;;;;;17.75;12.88;;;;;;;3.13;53.55;100227.63;5085043;28;20040;-67
2021/12/22 11:49:11;;;;;;;22.33;13.25;;;;;;;3.37;53.05;100228.25;5084724;28;20041;-66
2021/12/22 11:51:43;;;;;;;17.58;12.55;;;;;;;3.61;52.71;100219.19;5084725;28;20040;-66
2021/12/22 11:54:15;;;;;;;20.90;13.52;;;;;;;3.63;52.37;100217.44;5084457;28;20086;-66
2021/12/22 11:56:50;;;;;;;19.17;14.15;;;;;;;3.56;52.33;100206.16;5086150;28;20045;-67